createdAt,value
2022-09-22T00:01:36.218Z,0.83
2022-09-22T00:04:07.327Z,0.83
2022-09-22T00:06:39.005Z,0.87
2022-09-22T00:09:11.331Z,1.10
2022-09-22T00:11:42.545Z,1.00
2022-09-22T00:14:13.088Z,1.27
2022-09-22T00:16:43.356Z,1.10
2022-09-22T00:19:14.703Z,0.87
2022-09-22T00:21:43.146Z,0.60
2022-09-22T00:24:13.402Z,0.90
2022-09-22T00:26:41.572Z,0.80
2022-09-22T00:29:10.846Z,0.80
2022-09-22T00:31:41.110Z,1.00
2022-09-22T00:34:10.546Z,1.10
2022-09-22T00:36:38.706Z,0.80
2022-09-22T00:39:08.669Z,1.20
2022-09-22T00:41:42.144Z,1.20
2022-09-22T00:44:39.947Z,0.70
2022-09-22T00:47:17.070Z,0.80
2022-09-22T00:49:50.820Z,1.00
2022-09-22T00:52:24.274Z,0.93
2022-09-22T00:54:55.971Z,1.23
2022-09-22T00:57:29.402Z,0.90
2022-09-22T00:59:57.949Z,0.80
2022-09-22T01:02:26.275Z,0.70
2022-09-22T01:04:54.459Z,0.80
2022-09-22T01:07:26.276Z,1.00
2022-09-22T01:09:55.767Z,0.90
2022-09-22T01:12:27.075Z,1.27
2022-09-22T01:15:06.926Z,0.90
2022-09-22T01:17:55.376Z,1.00
2022-09-22T01:20:52.876Z,0.90
2022-09-22T01:24:09.699Z,0.93
2022-09-22T01:27:16.521Z,1.20
2022-09-22T01:30:24.910Z,0.90
2022-09-22T01:33:12.972Z,0.93
2022-09-22T01:35:50.772Z,1.10
2022-09-22T01:38:30.425Z,1.10
2022-09-22T01:41:05.401Z,1.07
2022-09-22T01:43:42.433Z,1.00
2022-09-22T01:46:16.322Z,0.83
2022-09-22T01:48:49.181Z,0.83
2022-09-22T01:51:22.534Z,0.80
2022-09-22T01:53:56.044Z,0.83
2022-09-22T01:56:27.427Z,1.00
2022-09-22T01:59:00.878Z,1.00
2022-09-22T02:01:38.044Z,1.03
2022-09-22T02:04:11.463Z,0.90
2022-09-22T02:06:43.884Z,1.23
2022-09-22T02:09:15.522Z,0.90
2022-09-22T02:11:44.030Z,0.80
2022-09-22T02:14:12.347Z,0.83
2022-09-22T02:16:42.449Z,0.90
2022-09-22T02:19:14.932Z,0.90
2022-09-22T02:21:46.996Z,0.80
2022-09-22T02:24:28.883Z,0.70
2022-09-22T02:26:58.862Z,0.90
2022-09-22T02:29:30.815Z,0.80
2022-09-22T02:32:03.951Z,0.80
2022-09-22T02:34:32.718Z,0.90
2022-09-22T02:37:07.521Z,0.80
2022-09-22T02:39:41.277Z,0.87
2022-09-22T02:42:24.959Z,1.07
2022-09-22T02:45:00.637Z,1.00
2022-09-22T02:47:35.392Z,0.80
2022-09-22T02:50:07.108Z,0.63
2022-09-22T02:52:35.262Z,1.00
2022-09-22T02:55:03.541Z,0.97
2022-09-22T02:57:31.825Z,0.80
2022-09-22T02:59:59.908Z,0.97
2022-09-22T03:02:29.464Z,0.97
2022-09-22T03:04:57.986Z,0.97
2022-09-22T03:07:26.141Z,0.90
2022-09-22T03:09:54.339Z,1.03
2022-09-22T03:12:22.670Z,1.17
2022-09-22T03:14:51.041Z,1.00
2022-09-22T03:17:19.249Z,0.90
2022-09-22T03:19:48.953Z,1.00
2022-09-22T03:22:17.033Z,0.90
2022-09-22T03:24:45.139Z,0.70
2022-09-22T03:27:13.378Z,1.03
2022-09-22T03:29:41.444Z,1.00
2022-09-22T03:32:09.937Z,0.80
2022-09-22T03:34:40.103Z,0.80
2022-09-22T03:37:11.201Z,0.83
2022-09-22T03:39:39.874Z,1.00
2022-09-22T03:42:08.843Z,0.87
2022-09-22T03:44:37.353Z,1.00
2022-09-22T03:47:05.918Z,0.90
2022-09-22T03:49:34.587Z,0.90
2022-09-22T03:52:03.455Z,1.10
2022-09-22T03:54:33.080Z,1.00
2022-09-22T03:57:01.105Z,1.30
2022-09-22T03:59:29.310Z,0.97
2022-09-22T04:01:58.478Z,1.00
2022-09-22T04:04:26.797Z,1.50
2022-09-22T04:06:55.077Z,1.27
2022-09-22T04:09:23.387Z,1.20
2022-09-22T04:11:52.861Z,0.90
2022-09-22T04:14:20.990Z,1.10
2022-09-22T04:16:49.377Z,0.90
2022-09-22T04:19:17.476Z,1.30
2022-09-22T04:21:45.644Z,1.43
2022-09-22T04:24:14.156Z,1.00
2022-09-22T04:26:56.651Z,1.70
2022-09-22T04:29:32.179Z,1.20
2022-09-22T04:32:00.257Z,0.90
2022-09-22T04:34:29.101Z,1.30
2022-09-22T04:36:57.591Z,1.13
2022-09-22T04:39:28.585Z,1.73
2022-09-22T04:41:56.987Z,1.50
2022-09-22T04:44:25.286Z,1.77
2022-09-22T04:46:56.142Z,1.20
2022-09-22T04:49:24.713Z,1.63
2022-09-22T04:51:53.204Z,1.80
2022-09-22T04:54:21.304Z,1.40
2022-09-22T04:56:49.426Z,1.27
2022-09-22T04:59:17.707Z,2.53
2022-09-22T05:01:45.938Z,1.80
2022-09-22T05:04:15.570Z,1.77
2022-09-22T05:06:44.031Z,1.37
2022-09-22T05:09:12.137Z,1.40
2022-09-22T05:11:44.418Z,1.67
2022-09-22T05:14:13.299Z,1.40
2022-09-22T05:16:42.256Z,1.30
2022-09-22T05:19:10.969Z,1.70
2022-09-22T05:21:40.850Z,1.10
2022-09-22T05:24:08.865Z,1.40
2022-09-22T05:26:37.030Z,1.10
2022-09-22T05:29:06.531Z,1.27
2022-09-22T05:31:34.628Z,1.57
2022-09-22T05:34:02.871Z,1.67
2022-09-22T05:36:31.188Z,1.20
2022-09-22T05:39:00.879Z,1.27
2022-09-22T05:41:31.487Z,1.13
2022-09-22T05:43:59.749Z,1.40
2022-09-22T05:46:27.861Z,2.23
2022-09-22T05:48:56.106Z,1.43
2022-09-22T05:51:24.498Z,1.53
2022-09-22T05:53:53.933Z,1.90
2022-09-22T05:56:23.755Z,1.77
2022-09-22T05:58:52.216Z,1.67
2022-09-22T06:01:20.593Z,1.47
2022-09-22T06:03:49.010Z,1.97
2022-09-22T06:06:17.085Z,1.70
2022-09-22T06:08:48.925Z,1.73
2022-09-22T06:11:17.457Z,1.60
2022-09-22T06:13:50.581Z,1.80
2022-09-22T06:16:19.020Z,1.50
2022-09-22T06:18:47.794Z,1.53
2022-09-22T06:21:16.601Z,2.43
2022-09-22T06:23:45.122Z,1.50
2022-09-22T06:26:13.535Z,1.80
2022-09-22T06:28:42.824Z,1.57
2022-09-22T06:31:12.764Z,1.30
2022-09-22T06:33:44.569Z,1.13
2022-09-22T06:36:12.753Z,1.20
2022-09-22T06:38:41.622Z,1.17
2022-09-22T06:41:10.155Z,1.17
2022-09-22T06:43:38.714Z,1.33
2022-09-22T06:46:07.593Z,1.10
2022-09-22T06:48:37.774Z,1.00
2022-09-22T06:51:06.119Z,1.30
2022-09-22T06:53:41.957Z,1.00
2022-09-22T06:56:10.076Z,1.33
2022-09-22T06:59:05.537Z,1.40
2022-09-22T07:01:31.653Z,1.30
2022-09-22T07:04:01.345Z,1.10
2022-09-22T07:06:30.069Z,1.60
2022-09-22T07:08:58.577Z,1.60
2022-09-22T07:11:26.976Z,1.53
2022-09-22T07:13:56.527Z,1.10
2022-09-22T07:16:26.602Z,1.53
2022-09-22T07:18:56.143Z,1.40
2022-09-22T07:21:27.991Z,1.13
2022-09-22T07:23:57.414Z,1.27
2022-09-22T07:26:29.227Z,1.40
2022-09-22T07:28:59.459Z,1.40
2022-09-22T07:31:30.029Z,1.20
2022-09-22T07:34:00.548Z,1.10
2022-09-22T07:36:40.450Z,1.33
2022-09-22T07:39:11.555Z,1.20
2022-09-22T07:41:43.757Z,1.33
2022-09-22T07:44:30.823Z,1.30
2022-09-22T07:46:59.846Z,1.50
2022-09-22T07:49:28.883Z,1.17
2022-09-22T07:51:59.069Z,1.07
2022-09-22T07:54:29.601Z,1.10
2022-09-22T07:56:59.816Z,1.10
2022-09-22T07:59:28.685Z,1.20
2022-09-22T08:01:57.504Z,1.37
2022-09-22T08:04:27.154Z,1.10
2022-09-22T08:06:56.906Z,1.20
2022-09-22T08:09:29.872Z,1.37
2022-09-22T08:11:58.613Z,1.00
2022-09-22T08:14:26.744Z,0.90
2022-09-22T08:16:55.552Z,1.10
2022-09-22T08:19:24.802Z,0.97
2022-09-22T08:21:54.646Z,0.60
2022-09-22T08:24:24.203Z,0.80
2022-09-22T08:26:56.417Z,0.70
2022-09-22T08:29:25.041Z,0.80
2022-09-22T08:31:54.479Z,1.40
2022-09-22T08:34:23.372Z,0.90
2022-09-22T08:36:51.682Z,0.77
2022-09-22T08:39:21.194Z,0.83
2022-09-22T08:42:14.821Z,3.70
2022-09-22T08:44:52.338Z,1.20
2022-09-22T08:47:40.443Z,0.90
2022-09-22T08:50:37.846Z,0.70
2022-09-22T08:53:10.410Z,0.80
2022-09-22T08:55:43.747Z,0.93
2022-09-22T08:58:27.733Z,0.80
2022-09-22T09:01:05.607Z,0.97
2022-09-22T09:03:47.765Z,1.03
2022-09-22T09:06:22.837Z,1.10
2022-09-22T09:09:19.168Z,0.90
2022-09-22T09:12:07.263Z,0.80
2022-09-22T09:14:51.109Z,0.90
2022-09-22T09:17:24.582Z,0.80
2022-09-22T09:19:57.079Z,0.87
2022-09-22T09:22:32.250Z,1.57
2022-09-22T09:25:23.935Z,1.00
2022-09-22T09:27:57.811Z,0.90
2022-09-22T09:30:28.515Z,0.80
2022-09-22T09:33:00.974Z,0.93
2022-09-22T09:35:42.135Z,1.00
2022-09-22T09:38:14.157Z,1.10
2022-09-22T09:40:42.862Z,1.10
2022-09-22T09:43:12.279Z,0.87
2022-09-22T09:45:54.188Z,0.80
2022-09-22T09:48:30.278Z,0.87
2022-09-22T09:51:04.297Z,1.20
2022-09-22T09:53:40.913Z,0.73
2022-09-22T09:56:24.522Z,0.60
2022-09-22T09:59:18.235Z,0.60
2022-09-22T10:01:51.110Z,0.90
2022-09-22T10:04:23.526Z,0.60
2022-09-22T10:06:52.130Z,0.70
2022-09-22T10:09:29.510Z,0.80
2022-09-22T10:12:02.173Z,0.80
2022-09-22T10:14:33.565Z,0.70
2022-09-22T10:17:05.115Z,0.90
2022-09-22T10:19:35.042Z,0.80
2022-09-22T10:22:26.042Z,0.77
2022-09-22T10:24:59.525Z,0.70
2022-09-22T10:27:30.147Z,0.83
2022-09-22T10:30:23.776Z,0.73
2022-09-22T10:33:17.609Z,0.80
2022-09-22T10:35:48.444Z,0.77
2022-09-22T10:38:20.507Z,0.83
2022-09-22T10:40:55.228Z,0.60
2022-09-22T10:43:39.831Z,0.80
2022-09-22T10:46:33.014Z,0.83
2022-09-22T10:49:07.860Z,1.27
2022-09-22T10:51:55.040Z,0.73
2022-09-22T10:54:43.546Z,0.90
2022-09-22T10:57:24.946Z,0.77
2022-09-22T11:00:06.284Z,0.83
2022-09-22T11:02:55.895Z,0.83
2022-09-22T11:05:56.306Z,0.80
2022-09-22T11:08:42.696Z,0.70
2022-09-22T11:11:37.364Z,1.20
2022-09-22T11:14:22.575Z,0.80
2022-09-22T11:17:09.886Z,0.77
2022-09-22T11:19:58.868Z,0.83
2022-09-22T11:22:51.594Z,1.00
2022-09-22T11:25:33.501Z,1.00
2022-09-22T11:28:18.885Z,1.00
2022-09-22T11:30:51.317Z,0.77
2022-09-22T11:33:45.196Z,0.87
2022-09-22T11:36:24.763Z,0.70
2022-09-22T11:39:09.882Z,0.70
2022-09-22T11:41:42.616Z,0.73
2022-09-22T11:44:29.726Z,0.80
2022-09-22T11:47:37.484Z,0.60
2022-09-22T11:50:32.035Z,0.60
2022-09-22T11:53:24.654Z,0.87
2022-09-22T11:56:08.826Z,0.73
2022-09-22T11:58:41.054Z,0.63
2022-09-22T12:01:15.674Z,0.80
2022-09-22T12:03:48.749Z,0.70
2022-09-22T12:06:22.065Z,0.70
2022-09-22T12:11:35.412Z,0.83
2022-09-22T12:14:05.774Z,0.87
2022-09-22T12:16:42.276Z,0.70
2022-09-22T12:19:23.029Z,0.83
2022-09-22T12:21:59.943Z,0.80
2022-09-22T12:24:28.355Z,1.03
2022-09-22T12:26:57.942Z,1.00
2022-09-22T12:29:29.540Z,1.17
2022-09-22T12:32:00.637Z,1.03
2022-09-22T12:34:33.863Z,1.00
2022-09-22T12:37:11.846Z,1.00
2022-09-22T12:39:43.362Z,0.80
2022-09-22T12:42:21.521Z,0.83
2022-09-22T12:44:55.798Z,1.00
2022-09-22T12:47:32.257Z,1.30
2022-09-22T12:50:03.117Z,0.87
2022-09-22T12:53:03.672Z,1.03
2022-09-22T12:55:47.362Z,1.00
2022-09-22T12:58:46.870Z,0.60
2022-09-22T13:01:40.217Z,4.00
2022-09-22T13:04:22.750Z,2.67
2022-09-22T13:06:57.244Z,4.07
2022-09-22T13:09:30.216Z,2.77
2022-09-22T13:12:23.456Z,1.10
2022-09-22T13:15:21.304Z,1.40
2022-09-22T13:17:50.762Z,1.03
2022-09-22T13:20:25.765Z,1.37
2022-09-22T13:22:56.767Z,1.07
2022-09-22T13:25:27.441Z,1.00
2022-09-22T13:28:15.226Z,1.23
2022-09-22T13:30:47.303Z,0.97
2022-09-22T13:33:23.461Z,0.93
2022-09-22T13:36:00.141Z,0.60
2022-09-22T13:38:29.620Z,1.00
2022-09-22T13:40:58.225Z,0.90
2022-09-22T13:43:32.303Z,1.30
2022-09-22T13:46:03.706Z,0.70
2022-09-22T13:48:37.137Z,0.80
2022-09-22T13:51:09.824Z,1.00
2022-09-22T13:53:40.359Z,0.70
2022-09-22T13:56:21.373Z,0.70
2022-09-22T13:58:52.394Z,0.90
2022-09-22T14:01:24.462Z,1.33
2022-09-22T14:03:54.824Z,0.90
2022-09-22T14:06:27.419Z,0.90
2022-09-22T14:08:57.358Z,0.90
2022-09-22T14:11:29.799Z,0.77
2022-09-22T14:14:00.160Z,1.00
2022-09-22T14:16:37.291Z,1.10
2022-09-22T14:19:09.907Z,1.13
2022-09-22T14:21:46.223Z,0.97
2022-09-22T14:24:15.820Z,1.07
2022-09-22T14:26:49.324Z,1.00
2022-09-22T14:29:23.046Z,0.70
2022-09-22T14:31:57.812Z,0.73
2022-09-22T14:34:31.574Z,1.13
2022-09-22T14:37:02.404Z,0.73
2022-09-22T14:39:34.588Z,1.00
2022-09-22T14:42:12.047Z,0.97
2022-09-22T14:44:46.592Z,0.87
2022-09-22T14:47:24.523Z,1.10
2022-09-22T14:50:08.981Z,1.07
2022-09-22T14:52:41.308Z,1.33
2022-09-22T14:55:17.382Z,2.10
2022-09-22T14:57:49.070Z,0.87
2022-09-22T15:00:36.883Z,0.80
2022-09-22T15:03:17.032Z,0.77
2022-09-22T15:05:46.290Z,0.80
2022-09-22T15:08:19.140Z,0.80
2022-09-22T15:10:55.528Z,1.00
2022-09-22T15:13:37.925Z,0.80
2022-09-22T15:16:07.812Z,1.00
2022-09-22T15:18:40.322Z,0.90
2022-09-22T15:21:13.237Z,0.63
2022-09-22T15:23:45.354Z,1.07
2022-09-22T15:26:19.786Z,1.10
2022-09-22T15:28:51.753Z,0.70
2022-09-22T15:31:27.151Z,1.00
2022-09-22T15:34:01.452Z,1.30
2022-09-22T15:36:32.182Z,1.07
2022-09-22T15:39:02.430Z,0.70
2022-09-22T15:41:31.020Z,0.90
2022-09-22T15:43:59.864Z,0.93
2022-09-22T15:46:34.041Z,0.70
2022-09-22T15:49:10.368Z,0.73
2022-09-22T15:51:38.874Z,0.80
2022-09-22T15:54:14.440Z,0.80
2022-09-22T15:56:43.050Z,0.83
2022-09-22T15:59:18.641Z,1.10
2022-09-22T16:01:47.165Z,0.80
2022-09-22T16:04:17.349Z,1.10
2022-09-22T16:06:51.482Z,1.00
2022-09-22T16:09:19.907Z,1.00
2022-09-22T16:11:54.796Z,0.93
2022-09-22T16:14:23.330Z,1.03
2022-09-22T16:16:52.572Z,0.93
2022-09-22T16:19:22.111Z,0.90
2022-09-22T16:21:51.786Z,1.20
2022-09-22T16:24:22.721Z,1.33
2022-09-22T16:26:51.933Z,1.23
2022-09-22T16:29:20.803Z,1.13
2022-09-22T16:31:49.091Z,0.90
2022-09-22T16:34:19.549Z,1.10
2022-09-22T16:36:49.360Z,1.57
2022-09-22T16:39:18.710Z,1.20
2022-09-22T16:41:47.804Z,1.17
2022-09-22T16:44:16.474Z,1.00
2022-09-22T16:46:44.884Z,1.07
2022-09-22T16:49:16.347Z,1.37
2022-09-22T16:51:49.042Z,0.80
2022-09-22T16:54:19.924Z,1.00
2022-09-22T16:56:50.987Z,1.30
2022-09-22T16:59:20.773Z,1.60
2022-09-22T17:01:49.635Z,1.40
2022-09-22T17:04:19.515Z,1.93
2022-09-22T17:06:48.268Z,1.70
2022-09-22T17:09:19.139Z,1.23
2022-09-22T17:11:49.410Z,1.40
2022-09-22T17:14:21.852Z,1.20
2022-09-22T17:16:52.531Z,1.30
2022-09-22T17:19:22.614Z,1.00
2022-09-22T17:21:55.692Z,1.30
2022-09-22T17:24:27.050Z,1.40
2022-09-22T17:26:57.135Z,1.20
2022-09-22T17:29:26.839Z,1.30
2022-09-22T17:31:57.509Z,1.30
2022-09-22T17:34:26.911Z,1.27
2022-09-22T17:36:55.633Z,1.40
2022-09-22T17:39:25.926Z,1.10
2022-09-22T17:41:55.239Z,1.50
2022-09-22T17:44:24.221Z,1.00
2022-09-22T17:47:11.493Z,1.00
2022-09-22T17:49:57.628Z,1.33
2022-09-22T17:52:44.008Z,1.50
2022-09-22T17:55:20.642Z,1.90
2022-09-22T17:57:50.561Z,1.70
2022-09-22T18:00:21.442Z,1.80
2022-09-22T18:02:50.749Z,1.57
2022-09-22T18:05:22.057Z,2.13
2022-09-22T18:07:53.704Z,1.90
2022-09-22T18:10:23.697Z,1.77
2022-09-22T18:12:52.184Z,2.30
2022-09-22T18:15:20.639Z,3.80
2022-09-22T18:17:49.437Z,1.37
2022-09-22T18:20:20.888Z,1.43
2022-09-22T18:22:50.194Z,1.30
2022-09-22T18:25:23.291Z,1.30
2022-09-22T18:27:53.726Z,1.60
2022-09-22T18:30:22.265Z,2.30
2022-09-22T18:32:50.725Z,1.40
2022-09-22T18:35:29.694Z,1.50
2022-09-22T18:37:58.046Z,1.70
2022-09-22T18:40:28.047Z,1.80
2022-09-22T18:42:57.840Z,1.63
2022-09-22T18:45:26.129Z,1.77
2022-09-22T18:47:59.527Z,1.57
2022-09-22T18:50:30.825Z,2.00
2022-09-22T18:52:58.975Z,1.90
2022-09-22T18:55:27.249Z,1.87
2022-09-22T18:57:56.050Z,1.80
2022-09-22T19:00:25.787Z,1.80
2022-09-22T19:02:54.000Z,1.90
2022-09-22T19:05:22.473Z,1.80
2022-09-22T19:07:53.904Z,1.90
2022-09-22T19:10:23.704Z,1.60
2022-09-22T19:12:52.106Z,2.10
2022-09-22T19:15:20.922Z,2.03
2022-09-22T19:17:51.175Z,1.90
2022-09-22T19:20:24.160Z,1.60
2022-09-22T19:22:54.097Z,1.87
2022-09-22T19:25:23.322Z,1.50
2022-09-22T19:27:52.452Z,1.40
2022-09-22T19:30:24.083Z,1.50
2022-09-22T19:32:56.463Z,1.60
2022-09-22T19:35:27.058Z,1.70
2022-09-22T19:37:56.743Z,1.63
2022-09-22T19:40:25.634Z,1.40
2022-09-22T19:42:54.595Z,1.50
2022-09-22T19:45:27.477Z,1.37
2022-09-22T19:47:58.663Z,1.40
2022-09-22T19:50:27.167Z,1.40
2022-09-22T19:52:55.421Z,1.83
2022-09-22T19:55:23.665Z,1.30
2022-09-22T19:57:53.144Z,1.50
2022-09-22T20:00:26.506Z,1.30
2022-09-22T20:02:59.362Z,1.50
2022-09-22T20:05:29.925Z,1.57
2022-09-22T20:07:58.259Z,1.87
2022-09-22T20:10:26.745Z,1.80
2022-09-22T20:12:55.307Z,1.53
2022-09-22T20:15:23.648Z,1.60
2022-09-22T20:17:51.889Z,1.50
2022-09-22T20:20:24.449Z,1.50
2022-09-22T20:22:59.452Z,1.60
2022-09-22T20:25:30.520Z,1.73
2022-09-22T20:27:59.048Z,1.40
2022-09-22T20:30:27.513Z,1.57
2022-09-22T20:32:55.835Z,1.50
2022-09-22T20:35:25.489Z,1.30
2022-09-22T20:37:59.477Z,1.33
2022-09-22T20:40:28.624Z,1.20
2022-09-22T20:42:56.696Z,1.17
2022-09-22T20:45:25.445Z,1.00
2022-09-22T20:47:55.103Z,1.20
2022-09-22T20:50:25.320Z,1.47
2022-09-22T20:52:53.909Z,1.27
2022-09-22T20:55:22.774Z,1.30
2022-09-22T20:57:50.876Z,1.43
2022-09-22T21:00:19.275Z,1.20
2022-09-22T21:02:47.763Z,1.40
2022-09-22T21:05:16.160Z,1.43
2022-09-22T21:07:45.825Z,1.10
2022-09-22T21:10:36.765Z,1.53
2022-09-22T21:13:05.547Z,1.30
2022-09-22T21:15:33.908Z,1.23
2022-09-22T21:18:02.123Z,1.23
2022-09-22T21:20:31.347Z,1.30
2022-09-22T21:23:01.331Z,1.30
2022-09-22T21:25:29.485Z,1.00
2022-09-22T21:27:57.675Z,1.40
2022-09-22T21:30:26.023Z,1.40
2022-09-22T21:32:54.184Z,1.70
2022-09-22T21:35:22.293Z,1.80
2022-09-22T21:37:52.091Z,1.60
2022-09-22T21:40:23.393Z,1.70
2022-09-22T21:42:52.343Z,1.83
2022-09-22T21:45:20.526Z,1.40
2022-09-22T21:47:51.647Z,1.70
2022-09-22T21:50:19.959Z,1.40
2022-09-22T21:52:48.135Z,1.40
2022-09-22T21:55:16.533Z,1.50
2022-09-22T21:57:46.326Z,1.40
2022-09-22T22:00:15.867Z,1.60
2022-09-22T22:03:01.658Z,1.30
2022-09-22T22:05:31.219Z,1.53
2022-09-22T22:07:59.662Z,1.67
2022-09-22T22:10:28.085Z,1.43
2022-09-22T22:12:57.693Z,1.70
2022-09-22T22:15:26.147Z,1.53
2022-09-22T22:17:54.547Z,1.60
2022-09-22T22:20:23.387Z,2.00
2022-09-22T22:22:51.450Z,1.80
2022-09-22T22:25:20.319Z,1.83
2022-09-22T22:27:48.545Z,2.03
2022-09-22T22:30:18.199Z,1.53
2022-09-22T22:32:46.785Z,1.40
2022-09-22T22:35:15.256Z,1.43
2022-09-22T22:37:45.821Z,2.00
2022-09-22T22:40:14.242Z,1.40
2022-09-22T22:42:42.438Z,1.90
2022-09-22T22:45:12.012Z,1.37
2022-09-22T22:47:42.101Z,1.80
2022-09-22T22:50:11.544Z,1.63
2022-09-22T22:52:43.314Z,1.97
2022-09-22T22:55:11.667Z,2.17
2022-09-22T22:57:39.897Z,1.60
2022-09-22T23:00:09.728Z,1.50
2022-09-22T23:02:38.757Z,1.60
2022-09-22T23:05:09.562Z,1.87
2022-09-22T23:07:38.740Z,2.07
2022-09-22T23:10:07.936Z,2.20
2022-09-22T23:12:40.427Z,2.00
2022-09-22T23:15:10.767Z,2.07
2022-09-22T23:17:39.478Z,2.33
2022-09-22T23:20:10.244Z,1.93
2022-09-22T23:22:38.480Z,2.17
2022-09-22T23:25:07.293Z,1.63
2022-09-22T23:27:35.686Z,1.50
2022-09-22T23:30:03.896Z,1.93
2022-09-22T23:32:31.953Z,1.83
2022-09-22T23:35:00.323Z,1.80
2022-09-22T23:37:29.794Z,1.80
2022-09-22T23:39:57.880Z,2.00
2022-09-22T23:42:26.465Z,1.93
2022-09-22T23:44:54.683Z,1.80
2022-09-22T23:47:23.013Z,2.37
2022-09-22T23:49:51.302Z,1.93
2022-09-22T23:52:19.333Z,1.60
2022-09-22T23:54:48.941Z,2.30
2022-09-22T23:57:17.467Z,1.80
2022-09-22T23:59:45.702Z,1.90
